sensor_id;sensor_type;location;lat;lon;timestamp;temperature;humidity
1361;DHT22;674;45.552;-122.600;2023-06-04T00:01:08;24.70;1.00
1361;DHT22;674;45.552;-122.600;2023-06-04T00:03:43;24.70;1.00
1361;DHT22;674;45.552;-122.600;2023-06-04T00:06:12;24.60;1.00
1361;DHT22;674;45.552;-122.600;2023-06-04T00:08:40;24.60;1.00
1361;DHT22;674;45.552;-122.600;2023-06-04T00:11:09;24.60;1.00
1361;DHT22;674;45.552;-122.600;2023-06-04T00:13:37;24.60;1.00
1361;DHT22;674;45.552;-122.600;2023-06-04T00:16:06;24.60;1.00
1361;DHT22;674;45.552;-122.600;2023-06-04T00:18:34;24.70;1.00
1361;DHT22;674;45.552;-122.600;2023-06-04T00:21:03;24.70;1.00
1361;DHT22;674;45.552;-122.600;2023-06-04T00:23:32;24.80;1.00
1361;DHT22;674;45.552;-122.600;2023-06-04T00:26:01;24.80;1.00
1361;DHT22;674;45.552;-122.600;2023-06-04T00:28:29;24.80;1.00
1361;DHT22;674;45.552;-122.600;2023-06-04T00:30:58;24.80;1.00
1361;DHT22;674;45.552;-122.600;2023-06-04T00:33:26;24.80;1.00
1361;DHT22;674;45.552;-122.600;2023-06-04T00:35:55;24.80;1.00
1361;DHT22;674;45.552;-122.600;2023-06-04T00:38:23;24.80;1.00
1361;DHT22;674;45.552;-122.600;2023-06-04T00:40:52;24.70;1.00
1361;DHT22;674;45.552;-122.600;2023-06-04T00:43:20;24.70;1.00
1361;DHT22;674;45.552;-122.600;2023-06-04T00:45:53;24.60;1.00
1361;DHT22;674;45.552;-122.600;2023-06-04T00:48:23;24.50;1.00
1361;DHT22;674;45.552;-122.600;2023-06-04T00:50:55;24.50;1.00
1361;DHT22;674;45.552;-122.600;2023-06-04T00:53:24;24.50;1.00
1361;DHT22;674;45.552;-122.600;2023-06-04T00:55:53;24.50;1.00
1361;DHT22;674;45.552;-122.600;2023-06-04T00:58:22;24.40;1.00
1361;DHT22;674;45.552;-122.600;2023-06-04T01:00:56;24.40;1.00
1361;DHT22;674;45.552;-122.600;2023-06-04T01:03:26;24.30;1.00
1361;DHT22;674;45.552;-122.600;2023-06-04T01:06:13;24.30;1.00
1361;DHT22;674;45.552;-122.600;2023-06-04T01:08:50;24.20;1.00
1361;DHT22;674;45.552;-122.600;2023-06-04T01:11:35;24.20;1.00
1361;DHT22;674;45.552;-122.600;2023-06-04T01:14:05;24.20;1.00
1361;DHT22;674;45.552;-122.600;2023-06-04T01:16:52;24.10;1.00
1361;DHT22;674;45.552;-122.600;2023-06-04T01:22:10;24.00;1.00
1361;DHT22;674;45.552;-122.600;2023-06-04T01:24:46;24.00;1.00
1361;DHT22;674;45.552;-122.600;2023-06-04T01:27:16;23.90;1.00
1361;DHT22;674;45.552;-122.600;2023-06-04T01:29:46;23.90;1.00
1361;DHT22;674;45.552;-122.600;2023-06-04T01:32:17;23.80;1.00
1361;DHT22;674;45.552;-122.600;2023-06-04T01:34:46;23.70;1.00
1361;DHT22;674;45.552;-122.600;2023-06-04T01:37:15;23.70;1.00
1361;DHT22;674;45.552;-122.600;2023-06-04T01:39:47;23.70;1.00
1361;DHT22;674;45.552;-122.600;2023-06-04T01:42:15;23.70;1.00
1361;DHT22;674;45.552;-122.600;2023-06-04T01:44:43;23.60;1.00
1361;DHT22;674;45.552;-122.600;2023-06-04T01:47:12;23.60;1.00
1361;DHT22;674;45.552;-122.600;2023-06-04T01:49:41;23.60;1.00
1361;DHT22;674;45.552;-122.600;2023-06-04T01:52:10;23.60;1.00
1361;DHT22;674;45.552;-122.600;2023-06-04T01:54:39;23.50;1.00
1361;DHT22;674;45.552;-122.600;2023-06-04T01:57:08;23.50;1.00
1361;DHT22;674;45.552;-122.600;2023-06-04T01:59:37;23.50;1.00
1361;DHT22;674;45.552;-122.600;2023-06-04T02:02:06;23.40;1.00
1361;DHT22;674;45.552;-122.600;2023-06-04T02:04:35;23.30;1.00
1361;DHT22;674;45.552;-122.600;2023-06-04T02:07:04;23.20;1.00
1361;DHT22;674;45.552;-122.600;2023-06-04T02:09:35;23.20;1.00
1361;DHT22;674;45.552;-122.600;2023-06-04T02:12:03;23.10;1.00
1361;DHT22;674;45.552;-122.600;2023-06-04T02:14:32;23.00;1.00
1361;DHT22;674;45.552;-122.600;2023-06-04T02:17:01;23.00;1.00
1361;DHT22;674;45.552;-122.600;2023-06-04T02:19:30;22.90;1.00
1361;DHT22;674;45.552;-122.600;2023-06-04T02:22:01;22.80;1.00
1361;DHT22;674;45.552;-122.600;2023-06-04T02:24:29;22.80;1.00
1361;DHT22;674;45.552;-122.600;2023-06-04T02:26:58;22.80;1.00
1361;DHT22;674;45.552;-122.600;2023-06-04T02:29:26;22.70;1.00
1361;DHT22;674;45.552;-122.600;2023-06-04T02:31:56;22.60;1.00
1361;DHT22;674;45.552;-122.600;2023-06-04T02:34:24;22.60;1.00
1361;DHT22;674;45.552;-122.600;2023-06-04T02:36:53;22.50;1.00
1361;DHT22;674;45.552;-122.600;2023-06-04T02:39:22;22.50;1.00
1361;DHT22;674;45.552;-122.600;2023-06-04T02:41:50;22.40;1.00
1361;DHT22;674;45.552;-122.600;2023-06-04T02:44:19;22.30;1.00
1361;DHT22;674;45.552;-122.600;2023-06-04T02:46:47;22.20;1.00
1361;DHT22;674;45.552;-122.600;2023-06-04T02:49:16;22.10;1.00
1361;DHT22;674;45.552;-122.600;2023-06-04T02:51:45;22.00;1.00
1361;DHT22;674;45.552;-122.600;2023-06-04T02:54:14;21.90;1.00
1361;DHT22;674;45.552;-122.600;2023-06-04T02:56:43;21.90;1.00
1361;DHT22;674;45.552;-122.600;2023-06-04T02:59:12;21.70;1.00
1361;DHT22;674;45.552;-122.600;2023-06-04T03:01:41;21.60;1.00
1361;DHT22;674;45.552;-122.600;2023-06-04T03:04:11;21.60;1.00
1361;DHT22;674;45.552;-122.600;2023-06-04T03:06:43;21.50;1.00
1361;DHT22;674;45.552;-122.600;2023-06-04T03:09:15;21.40;1.00
1361;DHT22;674;45.552;-122.600;2023-06-04T03:11:43;21.30;1.00
1361;DHT22;674;45.552;-122.600;2023-06-04T03:14:12;21.20;1.00
1361;DHT22;674;45.552;-122.600;2023-06-04T03:16:40;21.10;1.00
1361;DHT22;674;45.552;-122.600;2023-06-04T03:19:09;21.00;1.00
1361;DHT22;674;45.552;-122.600;2023-06-04T03:21:39;20.90;1.00
1361;DHT22;674;45.552;-122.600;2023-06-04T03:24:07;20.70;1.00
1361;DHT22;674;45.552;-122.600;2023-06-04T03:26:36;20.70;1.00
1361;DHT22;674;45.552;-122.600;2023-06-04T03:29:05;20.50;1.00
1361;DHT22;674;45.552;-122.600;2023-06-04T03:31:33;20.40;1.00
1361;DHT22;674;45.552;-122.600;2023-06-04T03:34:02;20.30;1.00
1361;DHT22;674;45.552;-122.600;2023-06-04T03:36:30;20.20;1.00
1361;DHT22;674;45.552;-122.600;2023-06-04T03:39:06;20.00;1.00
1361;DHT22;674;45.552;-122.600;2023-06-04T03:41:34;19.90;1.00
1361;DHT22;674;45.552;-122.600;2023-06-04T03:44:03;19.80;1.00
1361;DHT22;674;45.552;-122.600;2023-06-04T03:46:31;19.60;1.00
1361;DHT22;674;45.552;-122.600;2023-06-04T03:49:02;19.50;1.00
1361;DHT22;674;45.552;-122.600;2023-06-04T03:51:31;19.40;1.00
1361;DHT22;674;45.552;-122.600;2023-06-04T03:54:00;19.20;1.00
1361;DHT22;674;45.552;-122.600;2023-06-04T03:56:30;19.10;1.00
1361;DHT22;674;45.552;-122.600;2023-06-04T03:58:59;19.00;1.00
1361;DHT22;674;45.552;-122.600;2023-06-04T04:01:28;18.90;1.00
1361;DHT22;674;45.552;-122.600;2023-06-04T04:03:57;18.80;1.00
1361;DHT22;674;45.552;-122.600;2023-06-04T04:06:25;18.70;1.00
1361;DHT22;674;45.552;-122.600;2023-06-04T04:08:54;18.60;1.00
1361;DHT22;674;45.552;-122.600;2023-06-04T04:11:23;18.50;1.00
1361;DHT22;674;45.552;-122.600;2023-06-04T04:13:51;18.40;1.00
1361;DHT22;674;45.552;-122.600;2023-06-04T04:16:20;18.30;1.00
1361;DHT22;674;45.552;-122.600;2023-06-04T04:18:48;18.20;1.00
1361;DHT22;674;45.552;-122.600;2023-06-04T04:21:17;18.10;1.00
1361;DHT22;674;45.552;-122.600;2023-06-04T04:23:46;18.00;1.00
1361;DHT22;674;45.552;-122.600;2023-06-04T04:26:14;17.90;1.00
1361;DHT22;674;45.552;-122.600;2023-06-04T04:28:44;17.90;1.00
1361;DHT22;674;45.552;-122.600;2023-06-04T04:31:13;17.70;1.00
1361;DHT22;674;45.552;-122.600;2023-06-04T04:33:42;17.60;1.00
1361;DHT22;674;45.552;-122.600;2023-06-04T04:36:11;17.50;1.00
1361;DHT22;674;45.552;-122.600;2023-06-04T04:38:42;17.40;1.00
1361;DHT22;674;45.552;-122.600;2023-06-04T04:41:11;17.30;1.00
1361;DHT22;674;45.552;-122.600;2023-06-04T04:43:40;17.30;1.00
1361;DHT22;674;45.552;-122.600;2023-06-04T04:46:08;17.20;1.00
1361;DHT22;674;45.552;-122.600;2023-06-04T04:48:37;17.10;1.00
1361;DHT22;674;45.552;-122.600;2023-06-04T04:51:09;16.90;1.00
1361;DHT22;674;45.552;-122.600;2023-06-04T04:53:37;16.90;1.00
1361;DHT22;674;45.552;-122.600;2023-06-04T04:56:06;16.80;1.00
1361;DHT22;674;45.552;-122.600;2023-06-04T04:58:35;16.70;1.00
1361;DHT22;674;45.552;-122.600;2023-06-04T05:01:03;16.70;1.00
1361;DHT22;674;45.552;-122.600;2023-06-04T05:03:32;16.60;1.00
1361;DHT22;674;45.552;-122.600;2023-06-04T05:06:01;16.50;1.00
1361;DHT22;674;45.552;-122.600;2023-06-04T05:08:29;16.40;1.00
1361;DHT22;674;45.552;-122.600;2023-06-04T05:10:58;16.30;1.00
1361;DHT22;674;45.552;-122.600;2023-06-04T05:13:26;16.30;1.00
1361;DHT22;674;45.552;-122.600;2023-06-04T05:15:55;16.20;1.00
1361;DHT22;674;45.552;-122.600;2023-06-04T05:18:24;16.20;1.00
1361;DHT22;674;45.552;-122.600;2023-06-04T05:20:57;16.10;1.00
1361;DHT22;674;45.552;-122.600;2023-06-04T05:23:27;16.00;1.00
1361;DHT22;674;45.552;-122.600;2023-06-04T05:25:57;15.90;1.00
1361;DHT22;674;45.552;-122.600;2023-06-04T05:28:27;15.90;1.00
1361;DHT22;674;45.552;-122.600;2023-06-04T05:30:56;15.80;1.00
1361;DHT22;674;45.552;-122.600;2023-06-04T05:33:27;15.70;1.00
1361;DHT22;674;45.552;-122.600;2023-06-04T05:35:56;15.60;1.00
1361;DHT22;674;45.552;-122.600;2023-06-04T05:38:27;15.60;1.00
1361;DHT22;674;45.552;-122.600;2023-06-04T05:40:58;15.50;1.00
1361;DHT22;674;45.552;-122.600;2023-06-04T05:43:27;15.50;1.00
1361;DHT22;674;45.552;-122.600;2023-06-04T05:45:55;15.40;1.00
1361;DHT22;674;45.552;-122.600;2023-06-04T05:48:24;15.20;1.00
1361;DHT22;674;45.552;-122.600;2023-06-04T05:50:52;15.20;1.00
1361;DHT22;674;45.552;-122.600;2023-06-04T05:53:22;15.10;1.00
1361;DHT22;674;45.552;-122.600;2023-06-04T05:55:50;15.10;1.00
1361;DHT22;674;45.552;-122.600;2023-06-04T05:58:19;15.10;1.00
1361;DHT22;674;45.552;-122.600;2023-06-04T06:00:47;15.00;1.00
1361;DHT22;674;45.552;-122.600;2023-06-04T06:03:18;14.90;1.00
1361;DHT22;674;45.552;-122.600;2023-06-04T06:05:47;14.80;1.00
1361;DHT22;674;45.552;-122.600;2023-06-04T06:08:16;14.80;1.00
1361;DHT22;674;45.552;-122.600;2023-06-04T06:10:44;14.70;1.00
1361;DHT22;674;45.552;-122.600;2023-06-04T06:13:13;14.70;1.00
1361;DHT22;674;45.552;-122.600;2023-06-04T06:15:41;14.60;1.00
1361;DHT22;674;45.552;-122.600;2023-06-04T06:18:10;14.60;1.00
1361;DHT22;674;45.552;-122.600;2023-06-04T06:20:39;14.50;1.00
1361;DHT22;674;45.552;-122.600;2023-06-04T06:23:08;14.50;1.00
1361;DHT22;674;45.552;-122.600;2023-06-04T06:25:36;14.40;1.00
1361;DHT22;674;45.552;-122.600;2023-06-04T06:28:08;14.30;1.00
1361;DHT22;674;45.552;-122.600;2023-06-04T06:30:36;14.30;1.00
1361;DHT22;674;45.552;-122.600;2023-06-04T06:33:05;14.20;1.00
1361;DHT22;674;45.552;-122.600;2023-06-04T06:35:34;14.20;1.00
1361;DHT22;674;45.552;-122.600;2023-06-04T06:38:03;14.20;1.00
1361;DHT22;674;45.552;-122.600;2023-06-04T06:40:31;14.10;1.00
1361;DHT22;674;45.552;-122.600;2023-06-04T06:43:00;14.00;1.00
1361;DHT22;674;45.552;-122.600;2023-06-04T06:45:28;14.00;1.00
1361;DHT22;674;45.552;-122.600;2023-06-04T06:47:57;14.00;1.00
1361;DHT22;674;45.552;-122.600;2023-06-04T06:50:25;14.00;1.00
1361;DHT22;674;45.552;-122.600;2023-06-04T06:52:54;13.90;1.00
1361;DHT22;674;45.552;-122.600;2023-06-04T06:55:22;13.90;1.00
1361;DHT22;674;45.552;-122.600;2023-06-04T06:57:51;13.70;1.00
1361;DHT22;674;45.552;-122.600;2023-06-04T07:00:22;13.80;1.00
1361;DHT22;674;45.552;-122.600;2023-06-04T07:02:50;13.70;1.00
1361;DHT22;674;45.552;-122.600;2023-06-04T07:05:19;13.70;1.00
1361;DHT22;674;45.552;-122.600;2023-06-04T07:07:48;13.60;1.00
1361;DHT22;674;45.552;-122.600;2023-06-04T07:10:17;13.60;1.00
1361;DHT22;674;45.552;-122.600;2023-06-04T07:12:45;13.50;1.00
1361;DHT22;674;45.552;-122.600;2023-06-04T07:15:14;13.50;1.00
1361;DHT22;674;45.552;-122.600;2023-06-04T07:17:42;13.50;1.00
1361;DHT22;674;45.552;-122.600;2023-06-04T07:20:11;13.40;1.00
1361;DHT22;674;45.552;-122.600;2023-06-04T07:22:40;13.40;1.00
1361;DHT22;674;45.552;-122.600;2023-06-04T07:25:08;13.30;1.00
1361;DHT22;674;45.552;-122.600;2023-06-04T07:27:37;13.30;1.00
1361;DHT22;674;45.552;-122.600;2023-06-04T07:30:07;13.30;1.00
1361;DHT22;674;45.552;-122.600;2023-06-04T07:32:36;13.20;1.00
1361;DHT22;674;45.552;-122.600;2023-06-04T07:35:04;13.20;1.00
1361;DHT22;674;45.552;-122.600;2023-06-04T07:37:33;13.20;1.00
1361;DHT22;674;45.552;-122.600;2023-06-04T07:40:02;13.10;1.00
1361;DHT22;674;45.552;-122.600;2023-06-04T07:42:31;13.20;1.00
1361;DHT22;674;45.552;-122.600;2023-06-04T07:45:00;13.10;1.00
1361;DHT22;674;45.552;-122.600;2023-06-04T07:47:29;13.10;1.00
1361;DHT22;674;45.552;-122.600;2023-06-04T07:49:59;13.00;1.00
1361;DHT22;674;45.552;-122.600;2023-06-04T07:52:29;13.00;1.00
1361;DHT22;674;45.552;-122.600;2023-06-04T07:54:59;13.00;1.00
1361;DHT22;674;45.552;-122.600;2023-06-04T07:57:31;13.00;1.00
1361;DHT22;674;45.552;-122.600;2023-06-04T08:00:00;12.90;1.00
1361;DHT22;674;45.552;-122.600;2023-06-04T08:02:29;12.90;1.00
1361;DHT22;674;45.552;-122.600;2023-06-04T08:04:58;12.90;1.00
1361;DHT22;674;45.552;-122.600;2023-06-04T08:07:27;12.90;1.00
1361;DHT22;674;45.552;-122.600;2023-06-04T08:09:56;12.90;1.00
1361;DHT22;674;45.552;-122.600;2023-06-04T08:12:24;12.80;1.00
1361;DHT22;674;45.552;-122.600;2023-06-04T08:14:53;12.80;1.00
1361;DHT22;674;45.552;-122.600;2023-06-04T08:17:24;12.70;1.00
1361;DHT22;674;45.552;-122.600;2023-06-04T08:19:53;12.70;1.00
1361;DHT22;674;45.552;-122.600;2023-06-04T08:22:21;12.70;1.00
1361;DHT22;674;45.552;-122.600;2023-06-04T08:24:50;12.60;1.00
1361;DHT22;674;45.552;-122.600;2023-06-04T08:27:18;12.60;1.00
1361;DHT22;674;45.552;-122.600;2023-06-04T08:29:47;12.60;1.00
1361;DHT22;674;45.552;-122.600;2023-06-04T08:32:15;12.60;1.00
1361;DHT22;674;45.552;-122.600;2023-06-04T08:34:44;12.50;1.00
1361;DHT22;674;45.552;-122.600;2023-06-04T08:37:12;12.50;1.00
1361;DHT22;674;45.552;-122.600;2023-06-04T08:39:41;12.50;1.00
1361;DHT22;674;45.552;-122.600;2023-06-04T08:42:15;12.50;1.00
1361;DHT22;674;45.552;-122.600;2023-06-04T08:44:51;12.40;1.00
1361;DHT22;674;45.552;-122.600;2023-06-04T08:47:24;12.30;1.00
1361;DHT22;674;45.552;-122.600;2023-06-04T08:49:59;12.30;1.00
1361;DHT22;674;45.552;-122.600;2023-06-04T08:52:28;12.30;1.00
1361;DHT22;674;45.552;-122.600;2023-06-04T08:54:58;12.20;1.00
1361;DHT22;674;45.552;-122.600;2023-06-04T08:57:27;12.20;1.00
1361;DHT22;674;45.552;-122.600;2023-06-04T08:59:56;12.20;1.00
1361;DHT22;674;45.552;-122.600;2023-06-04T09:02:27;12.10;1.00
1361;DHT22;674;45.552;-122.600;2023-06-04T09:04:56;12.10;1.00
1361;DHT22;674;45.552;-122.600;2023-06-04T09:07:25;12.10;1.00
1361;DHT22;674;45.552;-122.600;2023-06-04T09:09:54;12.00;1.00
1361;DHT22;674;45.552;-122.600;2023-06-04T09:12:43;12.00;1.00
1361;DHT22;674;45.552;-122.600;2023-06-04T09:15:12;12.00;1.00
1361;DHT22;674;45.552;-122.600;2023-06-04T09:17:41;12.00;1.00
1361;DHT22;674;45.552;-122.600;2023-06-04T09:20:23;11.90;1.00
1361;DHT22;674;45.552;-122.600;2023-06-04T09:22:51;11.90;1.00
1361;DHT22;674;45.552;-122.600;2023-06-04T09:25:27;11.90;1.00
1361;DHT22;674;45.552;-122.600;2023-06-04T09:28:04;11.90;1.00
1361;DHT22;674;45.552;-122.600;2023-06-04T09:30:33;11.90;1.00
1361;DHT22;674;45.552;-122.600;2023-06-04T09:33:08;11.80;1.00
1361;DHT22;674;45.552;-122.600;2023-06-04T09:35:37;11.80;1.00
1361;DHT22;674;45.552;-122.600;2023-06-04T09:38:05;11.80;1.00
1361;DHT22;674;45.552;-122.600;2023-06-04T09:40:37;11.80;1.00
1361;DHT22;674;45.552;-122.600;2023-06-04T09:43:06;11.80;1.00
1361;DHT22;674;45.552;-122.600;2023-06-04T09:45:36;11.70;1.00
1361;DHT22;674;45.552;-122.600;2023-06-04T09:48:04;11.70;1.00
1361;DHT22;674;45.552;-122.600;2023-06-04T09:50:36;11.70;1.00
1361;DHT22;674;45.552;-122.600;2023-06-04T09:53:20;11.60;1.00
1361;DHT22;674;45.552;-122.600;2023-06-04T09:56:01;11.60;1.00
1361;DHT22;674;45.552;-122.600;2023-06-04T09:58:31;11.60;1.00
1361;DHT22;674;45.552;-122.600;2023-06-04T10:01:04;11.50;1.00
1361;DHT22;674;45.552;-122.600;2023-06-04T10:03:36;11.50;1.00
1361;DHT22;674;45.552;-122.600;2023-06-04T10:06:05;11.50;1.00
1361;DHT22;674;45.552;-122.600;2023-06-04T10:08:34;11.50;1.00
1361;DHT22;674;45.552;-122.600;2023-06-04T10:11:03;11.40;1.00
1361;DHT22;674;45.552;-122.600;2023-06-04T10:13:56;11.40;1.00
1361;DHT22;674;45.552;-122.600;2023-06-04T10:16:29;11.40;1.00
1361;DHT22;674;45.552;-122.600;2023-06-04T10:19:01;11.30;1.00
1361;DHT22;674;45.552;-122.600;2023-06-04T10:21:30;11.30;1.00
1361;DHT22;674;45.552;-122.600;2023-06-04T10:24:03;11.30;1.00
1361;DHT22;674;45.552;-122.600;2023-06-04T10:26:33;11.20;1.00
1361;DHT22;674;45.552;-122.600;2023-06-04T10:29:03;11.20;1.00
1361;DHT22;674;45.552;-122.600;2023-06-04T10:31:33;11.20;1.00
1361;DHT22;674;45.552;-122.600;2023-06-04T10:34:01;11.20;1.00
1361;DHT22;674;45.552;-122.600;2023-06-04T10:36:31;11.20;1.00
1361;DHT22;674;45.552;-122.600;2023-06-04T10:38:59;11.10;1.00
1361;DHT22;674;45.552;-122.600;2023-06-04T10:41:28;11.10;1.00
1361;DHT22;674;45.552;-122.600;2023-06-04T10:44:01;11.10;1.00
1361;DHT22;674;45.552;-122.600;2023-06-04T10:46:40;11.00;1.00
1361;DHT22;674;45.552;-122.600;2023-06-04T10:49:10;11.00;1.00
1361;DHT22;674;45.552;-122.600;2023-06-04T10:51:42;10.90;1.00
1361;DHT22;674;45.552;-122.600;2023-06-04T10:54:23;10.90;1.00
1361;DHT22;674;45.552;-122.600;2023-06-04T10:56:55;10.90;1.00
1361;DHT22;674;45.552;-122.600;2023-06-04T10:59:23;10.80;1.00
1361;DHT22;674;45.552;-122.600;2023-06-04T11:02:05;10.80;1.00
1361;DHT22;674;45.552;-122.600;2023-06-04T11:04:34;10.70;1.00
1361;DHT22;674;45.552;-122.600;2023-06-04T11:07:06;10.70;1.00
1361;DHT22;674;45.552;-122.600;2023-06-04T11:09:48;10.70;1.00
1361;DHT22;674;45.552;-122.600;2023-06-04T11:12:17;10.60;1.00
1361;DHT22;674;45.552;-122.600;2023-06-04T11:14:56;10.60;1.00
1361;DHT22;674;45.552;-122.600;2023-06-04T11:17:24;10.60;1.00
1361;DHT22;674;45.552;-122.600;2023-06-04T11:19:53;10.60;1.00
1361;DHT22;674;45.552;-122.600;2023-06-04T11:22:23;10.60;1.00
1361;DHT22;674;45.552;-122.600;2023-06-04T11:24:58;10.60;1.00
1361;DHT22;674;45.552;-122.600;2023-06-04T11:27:33;10.60;1.00
1361;DHT22;674;45.552;-122.600;2023-06-04T11:30:06;10.60;1.00
1361;DHT22;674;45.552;-122.600;2023-06-04T11:32:35;10.50;1.00
1361;DHT22;674;45.552;-122.600;2023-06-04T11:35:04;10.50;1.00
1361;DHT22;674;45.552;-122.600;2023-06-04T11:37:34;10.50;1.00
1361;DHT22;674;45.552;-122.600;2023-06-04T11:40:15;10.40;1.00
1361;DHT22;674;45.552;-122.600;2023-06-04T11:42:46;10.40;1.00
1361;DHT22;674;45.552;-122.600;2023-06-04T11:45:17;10.40;1.00
1361;DHT22;674;45.552;-122.600;2023-06-04T11:47:48;10.40;1.00
1361;DHT22;674;45.552;-122.600;2023-06-04T11:50:16;10.40;1.00
1361;DHT22;674;45.552;-122.600;2023-06-04T11:52:46;10.40;1.00
1361;DHT22;674;45.552;-122.600;2023-06-04T11:55:16;10.40;1.00
1361;DHT22;674;45.552;-122.600;2023-06-04T11:57:51;10.40;1.00
1361;DHT22;674;45.552;-122.600;2023-06-04T12:00:20;10.40;1.00
1361;DHT22;674;45.552;-122.600;2023-06-04T12:02:53;10.40;1.00
1361;DHT22;674;45.552;-122.600;2023-06-04T12:05:30;10.40;1.00
1361;DHT22;674;45.552;-122.600;2023-06-04T12:08:11;10.40;1.00
1361;DHT22;674;45.552;-122.600;2023-06-04T12:10:41;10.40;1.00
1361;DHT22;674;45.552;-122.600;2023-06-04T12:13:10;10.30;1.00
1361;DHT22;674;45.552;-122.600;2023-06-04T12:15:39;10.30;1.00
1361;DHT22;674;45.552;-122.600;2023-06-04T12:18:08;10.40;1.00
1361;DHT22;674;45.552;-122.600;2023-06-04T12:20:40;10.30;1.00
1361;DHT22;674;45.552;-122.600;2023-06-04T12:23:20;10.30;1.00
1361;DHT22;674;45.552;-122.600;2023-06-04T12:25:52;10.40;1.00
1361;DHT22;674;45.552;-122.600;2023-06-04T12:28:21;10.40;1.00
1361;DHT22;674;45.552;-122.600;2023-06-04T12:30:49;10.30;1.00
1361;DHT22;674;45.552;-122.600;2023-06-04T12:33:18;10.30;1.00
1361;DHT22;674;45.552;-122.600;2023-06-04T12:35:46;10.30;1.00
1361;DHT22;674;45.552;-122.600;2023-06-04T12:38:15;10.30;1.00
1361;DHT22;674;45.552;-122.600;2023-06-04T12:40:43;10.30;1.00
1361;DHT22;674;45.552;-122.600;2023-06-04T12:43:12;10.30;1.00
1361;DHT22;674;45.552;-122.600;2023-06-04T12:45:40;10.30;1.00
1361;DHT22;674;45.552;-122.600;2023-06-04T12:48:09;10.30;1.00
1361;DHT22;674;45.552;-122.600;2023-06-04T12:50:38;10.30;1.00
1361;DHT22;674;45.552;-122.600;2023-06-04T12:53:06;10.30;1.00
1361;DHT22;674;45.552;-122.600;2023-06-04T12:55:34;10.30;1.00
1361;DHT22;674;45.552;-122.600;2023-06-04T12:58:03;10.30;1.00
1361;DHT22;674;45.552;-122.600;2023-06-04T13:00:31;10.30;1.00
1361;DHT22;674;45.552;-122.600;2023-06-04T13:03:00;10.30;1.00
1361;DHT22;674;45.552;-122.600;2023-06-04T13:05:29;10.30;1.00
1361;DHT22;674;45.552;-122.600;2023-06-04T13:07:57;10.30;1.00
1361;DHT22;674;45.552;-122.600;2023-06-04T13:10:26;10.40;1.00
1361;DHT22;674;45.552;-122.600;2023-06-04T13:12:54;10.40;1.00
1361;DHT22;674;45.552;-122.600;2023-06-04T13:15:23;10.40;1.00
1361;DHT22;674;45.552;-122.600;2023-06-04T13:17:51;10.40;1.00
1361;DHT22;674;45.552;-122.600;2023-06-04T13:20:20;10.40;1.00
1361;DHT22;674;45.552;-122.600;2023-06-04T13:22:48;10.50;1.00
1361;DHT22;674;45.552;-122.600;2023-06-04T13:25:17;10.50;1.00
1361;DHT22;674;45.552;-122.600;2023-06-04T13:27:46;10.50;1.00
1361;DHT22;674;45.552;-122.600;2023-06-04T13:30:15;10.50;1.00
1361;DHT22;674;45.552;-122.600;2023-06-04T13:32:43;10.50;1.00
1361;DHT22;674;45.552;-122.600;2023-06-04T13:35:12;10.80;1.00
1361;DHT22;674;45.552;-122.600;2023-06-04T13:37:41;10.50;1.00
1361;DHT22;674;45.552;-122.600;2023-06-04T13:40:09;10.50;1.00
1361;DHT22;674;45.552;-122.600;2023-06-04T13:42:38;10.50;1.00
1361;DHT22;674;45.552;-122.600;2023-06-04T13:45:07;10.60;1.00
1361;DHT22;674;45.552;-122.600;2023-06-04T13:47:35;10.60;1.00
1361;DHT22;674;45.552;-122.600;2023-06-04T13:50:05;10.60;1.00
1361;DHT22;674;45.552;-122.600;2023-06-04T13:52:34;10.70;1.00
1361;DHT22;674;45.552;-122.600;2023-06-04T13:55:02;10.80;1.00
1361;DHT22;674;45.552;-122.600;2023-06-04T13:57:31;10.80;1.00
1361;DHT22;674;45.552;-122.600;2023-06-04T13:59:59;10.90;1.00
1361;DHT22;674;45.552;-122.600;2023-06-04T14:02:28;11.00;1.00
1361;DHT22;674;45.552;-122.600;2023-06-04T14:04:57;11.10;1.00
1361;DHT22;674;45.552;-122.600;2023-06-04T14:07:25;11.20;1.00
1361;DHT22;674;45.552;-122.600;2023-06-04T14:09:54;11.20;1.00
1361;DHT22;674;45.552;-122.600;2023-06-04T14:12:23;11.30;1.00
1361;DHT22;674;45.552;-122.600;2023-06-04T14:14:51;11.30;1.00
1361;DHT22;674;45.552;-122.600;2023-06-04T14:17:20;11.40;1.00
1361;DHT22;674;45.552;-122.600;2023-06-04T14:19:49;11.50;1.00
1361;DHT22;674;45.552;-122.600;2023-06-04T14:22:18;11.50;1.00
1361;DHT22;674;45.552;-122.600;2023-06-04T14:24:46;11.60;1.00
1361;DHT22;674;45.552;-122.600;2023-06-04T14:27:15;11.70;1.00
1361;DHT22;674;45.552;-122.600;2023-06-04T14:29:44;11.70;1.00
1361;DHT22;674;45.552;-122.600;2023-06-04T14:32:13;11.70;1.00
1361;DHT22;674;45.552;-122.600;2023-06-04T14:34:41;11.80;1.00
1361;DHT22;674;45.552;-122.600;2023-06-04T14:37:10;11.90;1.00
1361;DHT22;674;45.552;-122.600;2023-06-04T14:39:38;12.00;1.00
1361;DHT22;674;45.552;-122.600;2023-06-04T14:42:07;12.00;1.00
1361;DHT22;674;45.552;-122.600;2023-06-04T14:44:35;12.00;1.00
1361;DHT22;674;45.552;-122.600;2023-06-04T14:47:04;12.10;1.00
1361;DHT22;674;45.552;-122.600;2023-06-04T14:49:33;12.10;1.00
1361;DHT22;674;45.552;-122.600;2023-06-04T14:52:01;12.10;1.00
1361;DHT22;674;45.552;-122.600;2023-06-04T14:54:30;12.10;1.00
1361;DHT22;674;45.552;-122.600;2023-06-04T14:56:59;12.10;1.00
1361;DHT22;674;45.552;-122.600;2023-06-04T14:59:28;12.20;1.00
1361;DHT22;674;45.552;-122.600;2023-06-04T15:01:56;12.20;1.00
1361;DHT22;674;45.552;-122.600;2023-06-04T15:04:26;12.30;1.00
1361;DHT22;674;45.552;-122.600;2023-06-04T15:06:54;12.40;1.00
1361;DHT22;674;45.552;-122.600;2023-06-04T15:09:23;12.40;1.00
1361;DHT22;674;45.552;-122.600;2023-06-04T15:11:52;12.40;1.00
1361;DHT22;674;45.552;-122.600;2023-06-04T15:14:20;12.50;1.00
1361;DHT22;674;45.552;-122.600;2023-06-04T15:16:48;12.50;1.00
1361;DHT22;674;45.552;-122.600;2023-06-04T15:19:17;12.50;1.00
1361;DHT22;674;45.552;-122.600;2023-06-04T15:21:46;12.50;1.00
1361;DHT22;674;45.552;-122.600;2023-06-04T15:24:14;12.60;1.00
1361;DHT22;674;45.552;-122.600;2023-06-04T15:26:43;12.60;1.00
1361;DHT22;674;45.552;-122.600;2023-06-04T15:29:12;12.60;1.00
1361;DHT22;674;45.552;-122.600;2023-06-04T15:31:41;12.70;1.00
1361;DHT22;674;45.552;-122.600;2023-06-04T15:34:09;12.80;1.00
1361;DHT22;674;45.552;-122.600;2023-06-04T15:36:38;12.80;1.00
1361;DHT22;674;45.552;-122.600;2023-06-04T15:39:07;12.80;1.00
1361;DHT22;674;45.552;-122.600;2023-06-04T15:41:36;12.80;1.00
1361;DHT22;674;45.552;-122.600;2023-06-04T15:44:04;12.90;1.00
1361;DHT22;674;45.552;-122.600;2023-06-04T15:46:33;12.90;1.00
1361;DHT22;674;45.552;-122.600;2023-06-04T15:49:06;13.00;1.00
1361;DHT22;674;45.552;-122.600;2023-06-04T15:51:38;13.00;1.00
1361;DHT22;674;45.552;-122.600;2023-06-04T15:54:06;13.10;1.00
1361;DHT22;674;45.552;-122.600;2023-06-04T15:56:35;13.10;1.00
1361;DHT22;674;45.552;-122.600;2023-06-04T15:59:03;13.10;1.00
1361;DHT22;674;45.552;-122.600;2023-06-04T16:01:32;13.20;1.00
1361;DHT22;674;45.552;-122.600;2023-06-04T16:04:01;13.20;1.00